Rechercher aéroport 
image banner adimage banner adimage banner ad
image banner ad

KSBD - San Bernardino Intl

Situé à San Bernardino, United States

ICAO - SBD, IATA - SBD

Données fournies par Airmate  

Information générale

Coordonnées: N34°5'43" W117°14'6"
Élévation : 1159 feet MSL.
Variation magnétique : 13° East
Voir autres Aéroports à California

Données opérationnelles

Special qualification required
Heure actuelle UTC:
Heure actuelle locale:
Météo
METAR: KSBD 251556Z 00000KT 5SM HZ FEW150 24/15 A3001
TAF: KSBD 251141Z 2512/2612 VRB05KT P6SM BKN120 FM252100 26011KT P6SM BKN120 FM260400 VRB05KT P6SM BKN120 FM260600 VRB05KT P6SM VCSH BKN010 BKN100
Voir NOTAMs / SUP AIP / TFR affectant cet aéroport [VIEW]
Fréquences de communication: [VIEW]

Pistes:

Identifiant RWYQFULongueur (ft)Largeur (ft)SurfaceLDA (ft)
0670°10000200CONC10000
24250°10000200CONC10000

Coordonnées de l'aéroport

Adresse: San Bernardino United States

Vue satellite de KSBD